Statia Express — V7TT3 — position and weather

sailwx.info

Track history (hours):
 
Tides and Currents Weather Stations Pressure Air Temp Water Temp Dewpoint Dewpoint Depression Visibility Wind Speed Wind Dir Waves Ship Positions

Statia Express

Last reported at 2014-Aug-12 11:21 UTC. Time now 2014-Aug-28 07:26 UTC.
Position N 17°40' W 063°02'.
Warning: this ship's position is 15 days out of date.

Length 28 m; draft 4.1 m.

Type: Tug. MMSI: 538003879.

Date/timePositionNaut miles runAvg speedWind from/ knotsBaromVisibWave heightAir tempDewpointWater temp
2014-Aug-12 11:21N 17°40' W 063°02'5 6.3
2014-Aug-12 10:32N 17°45' W 063°03'6 6.3
2014-Aug-12 09:33N 17°51' W 063°04'10 1.9
2014-Aug-12 04:19N 18°01' W 063°03'0 0.0
2014-Aug-12 02:12N 18°01' W 063°03'0 0.0
2014-Aug-12 01:27N 18°01' W 063°03'2 0.4
2014-Aug-11 20:13N 18°01' W 063°05'0 0.0
2014-Aug-11 16:32N 18°01' W 063°05'0 0.0
2014-Aug-11 14:22N 18°01' W 063°05'2 0.3
2014-Aug-11 08:21N 18°01' W 063°03'0 0.0
2014-Aug-11 06:33N 18°01' W 063°03'1 0.1
2014-Aug-10 22:18N 18°01' W 063°03'0 0.0
2014-Aug-10 14:32N 18°00' W 063°03'0 0.1
2014-Aug-10 09:25N 18°01' W 063°03'0 0.0
2014-Aug-10 07:33N 18°01' W 063°03'0 0.0
2014-Aug-10 06:32N 18°01' W 063°03'1 0.1
2014-Aug-10 02:15N 18°01' W 063°03'0 0.0
2014-Aug-09 23:22N 18°01' W 063°03'1 0.3
2014-Aug-09 21:30N 18°01' W 063°03'1 0.4
2014-Aug-09 20:12N 18°01' W 063°03'0 0.0
2014-Aug-09 19:31N 18°01' W 063°03'1 0.5
2014-Aug-09 18:23N 18°01' W 063°03'19 0.4
2014-Aug-07 22:27N 17°41' W 063°03'6 5.2
2014-Aug-07 21:21N 17°47' W 063°04'7 5.2
2014-Aug-07 20:06N 17°53' W 063°05'5 5.4
2014-Aug-07 19:13N 17°58' W 063°05'3 0.4
2014-Aug-07 11:06N 18°01' W 063°03'2 2.1
2014-Aug-07 10:10N 17°59' W 063°05'2 2.2
2014-Aug-07 09:26N 17°57' W 063°05'11 4.9
2014-Aug-07 07:10N 17°46' W 063°03'2 0.1
2014-Aug-05 23:24N 17°44' W 063°04'6 6.7
2014-Aug-05 22:33N 17°50' W 063°04'7 6.7
2014-Aug-05 21:33N 17°57' W 063°05'4 0.4
2014-Aug-05 09:17N 18°01' W 063°03'0 0.0
2014-Aug-05 08:16N 18°01' W 063°03'7 1.8
2014-Aug-05 04:23N 17°54' W 063°04'  
Track history (hours):
 
Tides and Currents Weather Stations Pressure Air Temp Water Temp Dewpoint Dewpoint Depression Visibility Wind Speed Wind Dir Waves Ship Positions

Statia Express

Last reported at 2014-Aug-12 11:21 UTC. Time now 2014-Aug-28 07:26 UTC.
Position N 17°40' W 063°02'.
Warning: this ship's position is 15 days out of date.

Length 28 m; draft 4.1 m.

Type: Tug. MMSI: 538003879.

Date/timePositionNaut miles runAvg speedWind from/ knotsBaromVisibWave heightAir tempDewpointWater temp
2014-Aug-12 11:21N 17°40' W 063°02'5 6.3
2014-Aug-12 10:32N 17°45' W 063°03'6 6.3
2014-Aug-12 09:33N 17°51' W 063°04'10 1.9
2014-Aug-12 04:19N 18°01' W 063°03'0 0.0
2014-Aug-12 02:12N 18°01' W 063°03'0 0.0
2014-Aug-12 01:27N 18°01' W 063°03'2 0.4
2014-Aug-11 20:13N 18°01' W 063°05'0 0.0
2014-Aug-11 16:32N 18°01' W 063°05'0 0.0
2014-Aug-11 14:22N 18°01' W 063°05'2 0.3
2014-Aug-11 08:21N 18°01' W 063°03'0 0.0
2014-Aug-11 06:33N 18°01' W 063°03'1 0.1
2014-Aug-10 22:18N 18°01' W 063°03'0 0.0
2014-Aug-10 14:32N 18°00' W 063°03'0 0.1
2014-Aug-10 09:25N 18°01' W 063°03'0 0.0
2014-Aug-10 07:33N 18°01' W 063°03'0 0.0
2014-Aug-10 06:32N 18°01' W 063°03'1 0.1
2014-Aug-10 02:15N 18°01' W 063°03'0 0.0
2014-Aug-09 23:22N 18°01' W 063°03'1 0.3
2014-Aug-09 21:30N 18°01' W 063°03'1 0.4
2014-Aug-09 20:12N 18°01' W 063°03'0 0.0
2014-Aug-09 19:31N 18°01' W 063°03'1 0.5
2014-Aug-09 18:23N 18°01' W 063°03'19 0.4
2014-Aug-07 22:27N 17°41' W 063°03'6 5.2
2014-Aug-07 21:21N 17°47' W 063°04'7 5.2
2014-Aug-07 20:06N 17°53' W 063°05'5 5.4
2014-Aug-07 19:13N 17°58' W 063°05'3 0.4
2014-Aug-07 11:06N 18°01' W 063°03'2 2.1
2014-Aug-07 10:10N 17°59' W 063°05'2 2.2
2014-Aug-07 09:26N 17°57' W 063°05'11 4.9
2014-Aug-07 07:10N 17°46' W 063°03'2 0.1
2014-Aug-05 23:24N 17°44' W 063°04'6 6.7
2014-Aug-05 22:33N 17°50' W 063°04'7 6.7
2014-Aug-05 21:33N 17°57' W 063°05'4 0.4
2014-Aug-05 09:17N 18°01' W 063°03'0 0.0
2014-Aug-05 08:16N 18°01' W 063°03'7 1.8
2014-Aug-05 04:23N 17°54' W 063°04'  

Dump ship's entire track history